Terminal Aerodrome Forecast
Issued by NWS Mt. Holly, NJ

Home | Current Version | Previous Version | Text Only | Print | Product List | Glossary On
Versions: 1 2 3 4 5 6 7 8 9 10 11 12 13 14 15
000
FTUS41 KPHI 270548
TAFRDG
TAF
KRDG 270548Z 2706/2806 18007KT P6SM SCT120
     FM271000 19004KT P6SM SCT015 BKN100
      TEMPO 2710/2713 4SM BR BKN010
     FM271500 21009KT P6SM SCT025
     FM271700 23009G17KT P6SM BKN035 PROB30 2719/2723 TSRA OVC030CB
     FM280000 21006KT P6SM SCT100 BKN200=

USA.gov is the U.S. government's official web portal to all federal, state and local government web resources and services.